Allendale, New Jersey
Current Conditions -  °F | °C
As of 2:51 PM on Wednesday 28 Jan 2015 (Local Time) from KTEB Reporting Station
Clear Clear  
Wind Chill: 23°   Ceiling: Unl
Heat Index: 32°   Visibility: 10mi
Dew Point:   Wind: 13mph
Humidity: 34%   Direction: 330°NNW
Pressure: 30.08"   Gusts: NA
Location:  41.03°N, 74.14°W
Report Text: KTEB 281951Z 33011KT 10SM CLR 00/M14 A3008 RMK AO2 SLP184 T00001144
Loading
Personal Weather Stations






























Interactive Weather Map New forecast layout! Learn more

10-Day Weather Forecast

Advertisements
Track Severe Weather on mobile